Thunder radar more information blitzortung!


Radar de pluja more information rain snow radar


Visita la nostra xarxa de llocs de meteo:

Template documentation
and downloads

And another site



No particular awareness of the weather is required.    There are no Weather-warnings

Pagina Historial Weather Underground text

Diari Resum Juliol 14, 2017 Unitats:  Imperial    Mètric   Tant
« Previous Dia
SegĂźent Dia »
Diari Setmana Mensual Anual Personalitzada
  Maxima: Minima: Media:
Temperatura: TemperatureC °F 23.9 °F 26.7 °F
Punt de rosada: DewpointC °F 18.4 °F 19.5 °F
Humitat: Humidity % 48 % 65 %
Wind Speed: WindSpeedKMH mph 0.0 mph 6.7 mph
RĂ fegues de vent: WindSpeedGustKMH mph - -
Vent:- - SSE
Pression baro: PressurehPa in 1013.8 in -
Precipitacions: 0.0 in    
Historical Graphs
 
 
Dades de taula per Juliol 14, 2017
Temps Temperatura Punt de rosada Pression baro Vent Wind Speed RĂ fegues de vent Humitat Rainfall Rate (Hourly)
TemperatureC °F DewpointC °F PressurehPa in Calm     Humidity % HourlyPrecipMM in
00:01 24.5 °F 20.4 °F 1016.8 in East 5.6 mph 5.6 mph 78 % 0.0 in
00:05 24.2 °F 20.3 °F 1015.8 in Calm   3.2 mph 79 % 0.0 in
00:06 24.5 °F 20.4 °F 1016.8 in ESE 6.1 mph 6.1 mph 78 % 0.0 in
00:11 24.5 °F 20.6 °F 1016.8 in East 5.6 mph 5.6 mph 79 % 0.0 in
00:15 24.2 °F 20.6 °F 1015.8 in SW 1.6 mph 3.2 mph 80 % 0.0 in
00:25 24.1 °F 20.4 °F 1015.8 in SW 1.6 mph 1.6 mph 80 % 0.0 in
00:35 24.1 °F 20.4 °F 1015.8 in Calm   1.6 mph 80 % 0.0 in
00:45 24.1 °F 20.4 °F 1015.8 in Calm     80 % 0.0 in
00:55 24.1 °F 20.4 °F 1015.8 in Calm   1.6 mph 80 % 0.0 in
01:05 24.1 °F 20.4 °F 1015.8 in NW 1.6 mph 3.2 mph 80 % 0.0 in
01:15 24.1 °F 20.4 °F 1015.8 in Calm   1.6 mph 80 % 0.0 in
01:25 24.1 °F 20.4 °F 1015.8 in Calm   1.6 mph 80 % 0.0 in
01:35 24.1 °F 20.4 °F 1015.8 in Calm   3.2 mph 80 % 0.0 in
01:45 24.0 °F 20.3 °F 1015.8 in Calm     80 % 0.0 in
01:55 24.0 °F 20.3 °F 1015.8 in SW 1.6 mph 3.2 mph 80 % 0.0 in
02:05 24.1 °F 20.4 °F 1016.8 in SW 1.6 mph 1.6 mph 80 % 0.0 in
02:15 24.0 °F 20.3 °F 1016.8 in WSW 3.2 mph 6.4 mph 80 % 0.0 in
02:25 24.0 °F 20.3 °F 1016.8 in SW 3.2 mph 4.8 mph 80 % 0.0 in
02:35 23.9 °F 20.2 °F 1016.8 in SW 4.8 mph 6.4 mph 80 % 0.0 in
02:45 24.0 °F 20.3 °F 1016.8 in SW 3.2 mph 3.2 mph 80 % 0.0 in
02:55 24.0 °F 20.6 °F 1016.8 in SW 3.2 mph 6.4 mph 81 % 0.0 in
03:05 24.1 °F 20.6 °F 1016.8 in SW 3.2 mph 4.8 mph 81 % 0.0 in
03:15 24.2 °F 20.6 °F 1016.8 in WSW 1.6 mph 4.8 mph 80 % 0.0 in
03:25 24.5 °F 20.8 °F 1016.8 in Calm   4.8 mph 80 % 0.0 in
03:35 24.7 °F 20.8 °F 1017.8 in SW 3.2 mph 4.8 mph 79 % 0.0 in
03:45 24.8 °F 20.9 °F 1017.8 in SW 4.8 mph 8.0 mph 79 % 0.0 in
03:55 24.9 °F 21.0 °F 1017.8 in SW 1.6 mph 4.8 mph 79 % 0.0 in
04:05 25.1 °F 21.0 °F 1017.8 in Calm   6.4 mph 78 % 0.0 in
04:15 25.5 °F 21.2 °F 1016.8 in SW 1.6 mph 3.2 mph 77 % 0.0 in
04:25 25.6 °F 21.1 °F 1016.8 in SW 3.2 mph 4.8 mph 76 % 0.0 in
04:35 25.8 °F 21.2 °F 1017.8 in SSW 3.2 mph 4.8 mph 76 % 0.0 in
04:45 25.8 °F 21.1 °F 1017.8 in South 3.2 mph 4.8 mph 75 % 0.0 in
04:55 26.3 °F 21.5 °F 1017.8 in SSW 1.6 mph 6.4 mph 75 % 0.0 in
05:05 26.5 °F 21.1 °F 1017.8 in SW 3.2 mph 6.4 mph 72 % 0.0 in
05:15 26.7 °F 20.8 °F 1017.8 in SSW 4.8 mph 4.8 mph 70 % 0.0 in
10:23 26.8 °F 20.6 °F 1017.8 in ESE 3.9 mph 5.3 mph 69 % 0.0 in
10:28 26.2 °F 20.1 °F 1017.8 in ESE 7.9 mph 7.9 mph 69 % 0.0 in
10:33 25.8 °F 19.7 °F 1017.8 in NE 11.1 mph 11.1 mph 69 % 0.0 in
10:38 25.7 °F 19.6 °F 1017.8 in ENE 7.4 mph 7.4 mph 69 % 0.0 in
10:43 25.5 °F 19.2 °F 1017.8 in ENE 9.3 mph 9.3 mph 68 % 0.0 in
10:48 25.3 °F 18.9 °F 1017.8 in ENE 11.1 mph 11.1 mph 68 % 0.0 in
10:53 25.4 °F 19.1 °F 1017.8 in ESE 9.3 mph 9.3 mph 68 % 0.0 in
10:58 25.5 °F 19.2 °F 1017.8 in North 9.3 mph 9.3 mph 68 % 0.0 in
11:03 25.6 °F 19.3 °F 1017.8 in ENE 11.1 mph 11.1 mph 68 % 0.0 in
11:08 25.7 °F 19.3 °F 1017.8 in ESE 13.0 mph 13.0 mph 68 % 0.0 in
11:13 25.5 °F 19.2 °F 1017.8 in ENE 13.0 mph 13.0 mph 68 % 0.0 in
11:18 25.4 °F 19.1 °F 1017.8 in ENE 9.3 mph 9.3 mph 68 % 0.0 in
11:23 25.5 °F 19.4 °F 1016.8 in East 9.3 mph 9.3 mph 69 % 0.0 in
11:28 25.5 °F 19.2 °F 1016.8 in ESE 10.0 mph 10.0 mph 68 % 0.0 in
11:33 25.5 °F 19.4 °F 1016.8 in ENE 7.4 mph 7.4 mph 69 % 0.0 in
11:38 25.5 °F 19.4 °F 1016.8 in ENE 9.7 mph 9.7 mph 69 % 0.0 in
11:43 25.5 °F 19.4 °F 1016.8 in ESE 9.3 mph 9.3 mph 69 % 0.0 in
11:48 25.5 °F 19.4 °F 1016.8 in SSE 11.1 mph 11.1 mph 69 % 0.0 in
11:53 25.6 °F 19.7 °F 1016.8 in SE 3.7 mph 3.7 mph 70 % 0.0 in
11:58 25.8 °F 19.9 °F 1016.8 in SSE 5.6 mph 5.6 mph 70 % 0.0 in
12:03 25.8 °F 19.9 °F 1016.8 in ESE 6.4 mph 6.4 mph 70 % 0.0 in
12:08 25.9 °F 20.0 °F 1016.8 in ENE 13.0 mph 13.0 mph 70 % 0.0 in
12:13 25.9 °F 20.0 °F 1016.8 in ESE 7.4 mph 7.4 mph 70 % 0.0 in
12:18 25.9 °F 20.0 °F 1016.8 in ESE 13.0 mph 13.0 mph 70 % 0.0 in
12:23 26.0 °F 20.1 °F 1016.8 in ENE 9.3 mph 9.3 mph 70 % 0.0 in
12:28 26.1 °F 20.2 °F 1016.8 in ESE 9.3 mph 9.3 mph 70 % 0.0 in
12:33 26.2 °F 20.3 °F 1016.8 in ENE 11.1 mph 11.1 mph 70 % 0.0 in
12:38 26.1 °F 20.2 °F 1016.8 in ESE 3.7 mph 3.7 mph 70 % 0.0 in
12:43 26.6 °F 20.7 °F 1016.8 in SSW 5.6 mph 5.6 mph 70 % 0.0 in
12:48 26.8 °F 20.6 °F 1016.8 in East 3.7 mph 3.7 mph 69 % 0.0 in
12:53 26.7 °F 20.3 °F 1016.8 in ESE 9.3 mph 9.3 mph 68 % 0.0 in
12:58 26.5 °F 20.3 °F 1016.8 in NE 3.7 mph 3.7 mph 69 % 0.0 in
13:03 26.6 °F 20.4 °F 1016.8 in ENE 7.4 mph 7.4 mph 69 % 0.0 in
13:08 26.7 °F 20.6 °F 1016.8 in East 7.4 mph 7.4 mph 69 % 0.0 in
13:13 26.7 °F 20.6 °F 1016.8 in SE 3.7 mph 3.7 mph 69 % 0.0 in
13:18 27.0 °F 20.6 °F 1016.8 in ENE 5.6 mph 5.6 mph 68 % 0.0 in
13:23 27.0 °F 20.6 °F 1016.8 in ENE 1.9 mph 1.9 mph 68 % 0.0 in
13:28 27.2 °F 20.8 °F 1016.8 in SE 2.3 mph   68 % 0.0 in
13:33 27.4 °F 20.7 °F 1016.8 in NW 3.7 mph 3.7 mph 67 % 0.0 in
13:38 27.9 °F 20.2 °F 1017.8 in WSW 7.4 mph 7.4 mph 63 % 0.0 in
13:43 28.7 °F 20.7 °F 1017.8 in SW 3.7 mph 3.7 mph 62 % 0.0 in
13:48 29.3 °F 20.7 °F 1017.8 in SW 3.7 mph 3.9 mph 60 % 0.0 in
13:53 29.6 °F 20.7 °F 1016.8 in SW 11.1 mph 11.1 mph 59 % 0.0 in
13:58 29.8 °F 20.4 °F 1016.8 in WSW 14.5 mph 14.5 mph 57 % 0.0 in
14:03 30.1 °F 20.3 °F 1016.8 in South 14.8 mph 14.8 mph 56 % 0.0 in
14:08 30.6 °F 20.2 °F 1015.8 in SW 9.3 mph 9.3 mph 54 % 0.0 in
14:13 30.4 °F 20.1 °F 1015.8 in SW 11.1 mph 11.1 mph 54 % 0.0 in
14:18 30.6 °F 19.6 °F 1015.8 in SSE 6.9 mph 6.9 mph 52 % 0.0 in
14:23 31.2 °F 19.9 °F 1015.8 in SW 13.0 mph 13.0 mph 51 % 0.0 in
14:28 30.8 °F 19.8 °F 1015.8 in NW 9.3 mph 9.3 mph 52 % 0.0 in
14:33 31.2 °F 19.6 °F 1015.8 in SW 9.3 mph 9.3 mph 50 % 0.0 in
14:38 31.7 °F 20.0 °F 1015.8 in West 7.9 mph 7.9 mph 50 % 0.0 in
14:43 30.6 °F 19.0 °F 1015.8 in SSW 13.0 mph 13.0 mph 50 % 0.0 in
14:48 30.7 °F 19.1 °F 1015.8 in South 9.3 mph 9.3 mph 50 % 0.0 in
14:53 30.6 °F 19.0 °F 1014.8 in SW 12.2 mph 12.2 mph 50 % 0.0 in
14:58 30.4 °F 19.1 °F 1014.8 in South 13.0 mph 13.0 mph 51 % 0.0 in
15:03 30.6 °F 19.0 °F 1014.8 in SSE 5.6 mph 5.6 mph 50 % 0.0 in
15:08 30.3 °F 18.7 °F 1014.8 in West 14.8 mph 14.8 mph 50 % 0.0 in
15:13 30.5 °F 19.2 °F 1014.8 in SW 16.7 mph 16.7 mph 51 % 0.0 in
15:18 31.1 °F 19.4 °F 1014.8 in SSW 14.8 mph 14.8 mph 50 % 0.0 in
15:23 31.3 °F 19.3 °F 1014.8 in West 13.0 mph 13.0 mph 49 % 0.0 in
15:28 31.3 °F 19.3 °F 1014.8 in SSW 14.8 mph 14.8 mph 49 % 0.0 in
15:33 31.7 °F 19.7 °F 1014.8 in West 7.4 mph 7.4 mph 49 % 0.0 in
15:35 31.8 °F 19.4 °F 1014.8 in SW 5.6 mph 5.6 mph 48 % 0.0 in
15:40 31.1 °F 18.8 °F 1014.8 in SW 9.7 mph 20.9 mph 48 % 0.0 in
15:45 31.3 °F 19.3 °F 1014.8 in SW 4.8 mph 11.3 mph 49 % 0.0 in
15:50 30.7 °F 18.8 °F 1014.8 in SSW 4.8 mph 16.1 mph 49 % 0.0 in
15:55 30.3 °F 18.4 °F 1014.8 in South 4.8 mph 12.9 mph 49 % 0.0 in
16:00 30.3 °F 18.8 °F 1014.8 in South 3.2 mph 8.0 mph 50 % 0.0 in
16:05 30.5 °F 19.2 °F 1014.8 in South 4.8 mph 11.3 mph 51 % 0.0 in
16:10 29.8 °F 18.6 °F 1014.8 in South 8.0 mph 16.1 mph 51 % 0.0 in
16:15 29.9 °F 18.7 °F 1014.8 in SSW 4.8 mph 9.7 mph 51 % 0.0 in
16:20 30.0 °F 18.8 °F 1014.8 in SW 8.0 mph 9.7 mph 51 % 0.0 in
16:25 30.2 °F 18.9 °F 1014.8 in SW 4.8 mph 11.3 mph 51 % 0.0 in
16:30 30.9 °F 19.6 °F 1014.8 in SSW 3.2 mph 9.7 mph 51 % 0.0 in
16:35 30.9 °F 19.3 °F 1014.8 in SW 9.7 mph 14.5 mph 50 % 0.0 in
16:40 30.8 °F 19.2 °F 1014.8 in SW 4.8 mph 14.5 mph 50 % 0.0 in
16:45 30.7 °F 19.1 °F 1014.8 in SW 8.0 mph 14.5 mph 50 % 0.0 in
16:50 29.9 °F 18.7 °F 1014.8 in SW 9.3 mph 9.3 mph 51 % 0.0 in
16:55 30.0 °F 18.8 °F 1014.8 in SSE 7.9 mph 7.9 mph 51 % 0.0 in
17:00 30.0 °F 18.8 °F 1014.8 in West 5.6 mph 5.6 mph 51 % 0.0 in
17:02 30.1 °F 18.8 °F 1014.8 in West 11.1 mph 11.1 mph 51 % 0.0 in
17:07 29.9 °F 18.7 °F 1014.8 in SSW 9.3 mph 9.3 mph 51 % 0.0 in
17:12 30.3 °F 19.1 °F 1014.8 in South 9.3 mph 9.3 mph 51 % 0.0 in
17:17 30.4 °F 19.1 °F 1014.8 in South 11.1 mph 11.1 mph 51 % 0.0 in
17:22 30.3 °F 19.1 °F 1014.8 in SSW 13.0 mph 13.0 mph 51 % 0.0 in
17:27 29.8 °F 18.9 °F 1013.8 in SSW 9.3 mph 9.3 mph 52 % 0.0 in
17:32 29.5 °F 18.6 °F 1013.8 in WSW 9.3 mph 9.3 mph 52 % 0.0 in
17:37 29.9 °F 19.0 °F 1013.8 in SW 13.0 mph 13.0 mph 52 % 0.0 in
17:42 30.4 °F 19.4 °F 1013.8 in SW 7.4 mph 7.4 mph 52 % 0.0 in
17:47 30.5 °F 19.6 °F 1013.8 in SSW 10.0 mph 10.0 mph 52 % 0.0 in
17:52 29.6 °F 19.0 °F 1013.8 in SSW 16.7 mph 16.7 mph 53 % 0.0 in
17:57 29.6 °F 19.0 °F 1014.8 in South 10.0 mph 10.0 mph 53 % 0.0 in
18:02 29.5 °F 18.9 °F 1014.8 in SSW 13.0 mph 13.0 mph 53 % 0.0 in
18:07 29.6 °F 19.3 °F 1014.8 in SSW 7.4 mph 7.4 mph 54 % 0.0 in
18:12 29.9 °F 19.6 °F 1014.8 in SW 7.4 mph 7.4 mph 54 % 0.0 in
18:17 29.9 °F 19.6 °F 1014.8 in SW 5.6 mph 5.6 mph 54 % 0.0 in
18:22 30.4 °F 19.7 °F 1014.8 in SSW 9.3 mph 9.3 mph 53 % 0.0 in
18:27 30.1 °F 19.4 °F 1013.8 in South 13.0 mph 13.0 mph 53 % 0.0 in
18:32 29.7 °F 19.4 °F 1013.8 in South 13.0 mph 13.0 mph 54 % 0.0 in
18:37 29.1 °F 18.8 °F 1013.8 in ENE 9.3 mph 9.3 mph 54 % 0.0 in
18:42 29.0 °F 19.1 °F 1014.8 in WSW 7.4 mph 7.4 mph 55 % 0.0 in
18:47 28.9 °F 19.2 °F 1014.8 in SW 9.0 mph 9.0 mph 56 % 0.0 in
18:52 28.6 °F 18.9 °F 1014.8 in ESE 9.3 mph 9.3 mph 56 % 0.0 in
18:57 28.1 °F 18.8 °F 1014.8 in ESE 3.7 mph 3.7 mph 57 % 0.0 in
19:02 27.8 °F 18.8 °F 1014.8 in ESE 7.4 mph 7.4 mph 58 % 0.0 in
19:07 27.0 °F 18.6 °F 1014.8 in ESE 9.3 mph 9.3 mph 60 % 0.0 in
19:12 26.5 °F 18.6 °F 1014.8 in SSE 9.3 mph 9.3 mph 62 % 0.0 in
19:17 27.0 °F 18.6 °F 1014.8 in South 7.4 mph 7.4 mph 60 % 0.0 in
19:22 27.1 °F 18.7 °F 1014.8 in SSE 5.6 mph 5.6 mph 60 % 0.0 in
19:27 26.7 °F 18.6 °F 1014.8 in West 5.6 mph 5.6 mph 61 % 0.0 in
19:32 26.8 °F 18.9 °F 1014.8 in West 5.6 mph 5.6 mph 62 % 0.0 in
19:37 26.9 °F 19.0 °F 1014.8 in SSE 7.4 mph 7.4 mph 62 % 0.0 in
19:42 26.9 °F 19.0 °F 1014.8 in South 3.2 mph   62 % 0.0 in
19:47 26.7 °F 19.1 °F 1014.8 in ESE 6.1 mph 6.1 mph 63 % 0.0 in
19:52 26.3 °F 18.7 °F 1014.8 in WSW 1.4 mph   63 % 0.0 in
19:57 26.0 °F 18.7 °F 1014.8 in East 7.4 mph 7.4 mph 64 % 0.0 in
20:02 25.6 °F 18.6 °F 1014.8 in East 7.4 mph 7.4 mph 65 % 0.0 in
20:07 25.5 °F 18.7 °F 1014.8 in East 9.3 mph 9.3 mph 66 % 0.0 in
20:12 25.4 °F 18.8 °F 1014.8 in East 9.3 mph 9.3 mph 67 % 0.0 in
20:17 25.2 °F 18.6 °F 1014.8 in East 9.3 mph 9.3 mph 67 % 0.0 in
20:22 25.1 °F 18.6 °F 1014.8 in East 7.4 mph 7.4 mph 67 % 0.0 in
20:27 25.1 °F 18.8 °F 1014.8 in WNW 9.3 mph 9.3 mph 68 % 0.0 in
20:32 25.0 °F 18.7 °F 1014.8 in ESE 9.3 mph 9.3 mph 68 % 0.0 in
20:37 24.8 °F 19.2 °F 1015.8 in ENE 9.3 mph 9.3 mph 71 % 0.0 in
20:42 24.8 °F 18.9 °F 1015.8 in SSE 7.4 mph 7.4 mph 70 % 0.0 in
20:47 24.7 °F 18.8 °F 1015.8 in ENE 7.4 mph 7.4 mph 70 % 0.0 in
20:52 24.7 °F 19.1 °F 1014.8 in East 3.7 mph 3.7 mph 71 % 0.0 in
20:57 24.7 °F 18.8 °F 1014.8 in NNE 5.6 mph 5.6 mph 70 % 0.0 in
21:02 24.7 °F 19.1 °F 1014.8 in NE 5.6 mph 5.6 mph 71 % 0.0 in
21:07 24.8 °F 19.2 °F 1015.8 in ENE 3.7 mph   71 % 0.0 in
21:12 24.8 °F 19.2 °F 1015.8 in East 7.4 mph 7.4 mph 71 % 0.0 in
21:17 24.7 °F 19.1 °F 1015.8 in ENE 7.4 mph 7.4 mph 71 % 0.0 in
21:22 24.7 °F 19.1 °F 1014.8 in NE 5.6 mph 5.6 mph 71 % 0.0 in
21:27 24.6 °F 19.0 °F 1014.8 in ENE 5.6 mph 5.6 mph 71 % 0.0 in
21:32 24.5 °F 19.1 °F 1014.8 in East 9.3 mph 9.3 mph 72 % 0.0 in
21:37 24.6 °F 19.0 °F 1015.8 in East 7.4 mph 7.4 mph 71 % 0.0 in
21:42 24.5 °F 19.1 °F 1015.8 in ESE 7.4 mph 7.4 mph 72 % 0.0 in
21:47 24.4 °F 19.2 °F 1015.8 in ESE 9.3 mph 9.3 mph 73 % 0.0 in
21:52 24.3 °F 19.2 °F 1014.8 in SE 9.3 mph 9.3 mph 73 % 0.0 in
21:57 24.4 °F 19.2 °F 1014.8 in East 5.6 mph 5.6 mph 73 % 0.0 in
22:02 24.4 °F 19.2 °F 1014.8 in ESE 5.6 mph 5.6 mph 73 % 0.0 in
22:07 24.4 °F 19.2 °F 1015.8 in ESE 5.6 mph 5.6 mph 73 % 0.0 in
22:12 24.3 °F 19.2 °F 1015.8 in SE 5.6 mph 5.6 mph 73 % 0.0 in
22:17 24.3 °F 19.2 °F 1015.8 in ESE 5.6 mph 5.6 mph 73 % 0.0 in
22:22 24.4 °F 19.2 °F 1015.8 in SE 5.6 mph 5.6 mph 73 % 0.0 in
22:27 24.4 °F 19.2 °F 1015.8 in ENE 5.6 mph 5.6 mph 73 % 0.0 in
22:32 24.3 °F 19.2 °F 1015.8 in SE 5.6 mph 5.6 mph 73 % 0.0 in
22:37 24.3 °F 19.2 °F 1015.8 in ESE 5.6 mph 5.6 mph 73 % 0.0 in
22:42 24.4 °F 19.2 °F 1015.8 in East 5.3 mph 5.3 mph 73 % 0.0 in
22:47 24.4 °F 19.2 °F 1015.8 in East 3.9 mph 3.9 mph 73 % 0.0 in
22:52 24.4 °F 19.2 °F 1016.8 in NE 3.7 mph 3.7 mph 73 % 0.0 in
22:57 24.3 °F 19.4 °F 1016.8 in ENE 5.6 mph 5.6 mph 74 % 0.0 in
23:02 24.4 °F 19.4 °F 1016.8 in ESE 3.7 mph 5.0 mph 74 % 0.0 in
23:07 24.3 °F 19.2 °F 1016.8 in ESE 5.3 mph 5.3 mph 73 % 0.0 in
23:12 24.3 °F 19.4 °F 1016.8 in ESE 3.7 mph 3.7 mph 74 % 0.0 in
23:17 24.3 °F 19.2 °F 1016.8 in East 2.6 mph 2.6 mph 73 % 0.0 in
23:22 24.3 °F 19.4 °F 1016.8 in ESE 1.9 mph 1.9 mph 74 % 0.0 in
23:27 24.3 °F 19.2 °F 1016.8 in WSW 3.7 mph 3.7 mph 73 % 0.0 in
23:32 24.3 °F 19.2 °F 1016.8 in SW 3.7 mph 3.7 mph 73 % 0.0 in
23:37 24.3 °F 19.2 °F 1016.8 in Calm     73 % 0.0 in
23:42 24.4 °F 19.2 °F 1016.8 in WSW 3.7 mph 3.7 mph 73 % 0.0 in
23:47 24.4 °F 19.2 °F 1016.8 in WSW 3.7 mph 3.7 mph 73 % 0.0 in
23:52 24.5 °F 19.3 °F 1017.8 in West 3.7 mph 3.7 mph 73 % 0.0 in
23:57 24.5 °F 19.3 °F 1017.8 in WSW 3.7 mph 3.7 mph 73 % 0.0 in
23:59 24.5 °F 19.3 °F 1017.8 in WSW 4.2 mph 4.2 mph 73 % 0.0 in
Meteo Sesrovires
Elogis d' Weather Underground - 3.5 mb

Guio original per  Jim McMurry - jmcmurry@mwt.net Adaptat per a la plantilla per  Wim van der Kuil - Leuven-Template.eu

Trobareu la nostra informacio del temps tambe a:

Weather Underground

AWEKAS